Time;durP1;ratioP1;P1;durP2;ratioP2;P2;SDS_P1;SDS_P2;PMS_P1;PMS_P2;Temp;Humidity;BMP_temperature;BMP_pressure;BME280_temperature;BME280_humidity;BME280_pressure;Samples;Min_cycle;Max_cycle;Signal;HPM_P1;HPM_P2
2022/01/07 00:04:47;;;;;;;2.25;1.50;;;11.80;67.40;;;;;;10504490;28;20107;-53
2022/01/07 00:09:48;;;;;;;6.10;1.75;;;11.80;67.50;;;;;;10521075;28;20569;-54
2022/01/07 00:14:49;;;;;;;3.03;1.55;;;11.80;67.40;;;;;;10520982;28;20028;-53
2022/01/07 00:19:50;;;;;;;3.05;1.60;;;11.80;67.40;;;;;;10520755;28;20119;-53
2022/01/07 00:24:51;;;;;;;3.08;1.88;;;11.80;67.30;;;;;;10538561;28;20143;-52
2022/01/07 00:29:52;;;;;;;4.38;1.63;;;11.80;67.40;;;;;;10538528;28;20028;-53
2022/01/07 00:34:52;;;;;;;2.75;1.70;;;11.80;67.40;;;;;;10538330;28;20020;-53
2022/01/07 00:39:53;;;;;;;2.55;1.40;;;11.80;67.40;;;;;;10538032;28;20035;-53
2022/01/07 00:44:54;;;;;;;2.08;1.27;;;11.80;67.20;;;;;;10519733;28;20032;-53
2022/01/07 00:49:54;;;;;;;3.63;1.77;;;11.80;67.20;;;;;;10538015;28;20353;-53
2022/01/07 00:54:56;;;;;;;3.38;1.50;;;11.80;67.30;;;;;;10540306;28;20495;-52
2022/01/07 00:59:56;;;;;;;2.33;1.70;;;11.80;67.40;;;;;;10559428;28;20483;-52
2022/01/07 01:04:57;;;;;;;2.67;1.48;;;11.80;67.20;;;;;;10519173;28;20084;-53
2022/01/07 01:09:58;;;;;;;3.25;1.45;;;11.80;67.20;;;;;;10536068;28;20142;-53
2022/01/07 01:14:59;;;;;;;1.85;1.10;;;11.80;67.20;;;;;;10536917;28;20042;-54
2022/01/07 01:20:00;;;;;;;2.63;1.40;;;11.90;67.00;;;;;;10501961;28;20027;-52
2022/01/07 01:25:03;;;;;;;2.78;1.40;;;11.90;67.00;;;;;;10518358;28;20040;-54
2022/01/07 01:30:08;;;;;;;2.10;1.42;;;11.80;67.00;;;;;;10518528;28;20024;-52
2022/01/07 01:35:10;;;;;;;2.53;2.10;;;11.80;67.10;;;;;;10536749;28;20376;-53
2022/01/07 01:40:11;;;;;;;2.33;1.60;;;11.80;67.10;;;;;;10518232;28;20024;-52
2022/01/07 01:45:15;;;;;;;4.03;1.65;;;11.80;67.00;;;;;;10518092;28;20035;-53
2022/01/07 01:50:17;;;;;;;2.85;1.73;;;11.80;67.10;;;;;;10518416;28;20055;-52
2022/01/07 01:55:19;;;;;;;4.13;1.60;;;11.80;67.10;;;;;;10523941;28;20039;-52
2022/01/07 02:00:23;;;;;;;3.42;1.95;;;11.80;67.20;;;;;;10554623;28;20039;-51
2022/01/07 02:05:26;;;;;;;2.80;1.98;;;11.80;67.00;;;;;;10518170;28;20034;-52
2022/01/07 02:10:28;;;;;;;2.60;1.73;;;11.80;66.90;;;;;;10517763;28;20035;-53
2022/01/07 02:15:29;;;;;;;2.78;1.58;;;11.90;66.70;;;;;;10517487;28;20024;-52
2022/01/07 02:20:30;;;;;;;2.53;1.38;;;11.90;66.80;;;;;;10500649;28;20028;-52
2022/01/07 02:25:31;;;;;;;3.35;1.50;;;11.80;66.90;;;;;;10543240;28;20365;-53
2022/01/07 02:30:32;;;;;;;2.05;1.20;;;11.90;66.90;;;;;;10525411;28;20032;-53
2022/01/07 02:35:35;;;;;;;2.60;1.45;;;11.90;66.70;;;;;;10525029;28;20024;-53
2022/01/07 02:40:36;;;;;;;1.85;1.05;;;11.80;66.80;;;;;;10524744;28;20496;-51
2022/01/07 02:45:37;;;;;;;3.70;1.63;;;11.80;66.90;;;;;;10543015;28;20118;-53
2022/01/07 02:50:38;;;;;;;3.33;1.33;;;11.90;66.70;;;;;;10524490;28;20051;-52
2022/01/07 02:55:40;;;;;;;2.70;1.35;;;11.90;66.70;;;;;;10533251;28;20027;-54
2022/01/07 03:00:41;;;;;;;3.33;1.40;;;11.80;66.80;;;;;;10557464;28;20028;-53
2022/01/07 03:05:42;;;;;;;3.05;1.50;;;11.80;66.80;;;;;;10541962;28;20106;-53
2022/01/07 03:10:43;;;;;;;3.67;1.85;;;11.90;66.70;;;;;;10523724;28;20385;-52
2022/01/07 03:15:44;;;;;;;2.30;1.52;;;11.90;66.70;;;;;;10523467;28;20057;-51
2022/01/07 03:20:44;;;;;;;3.25;1.42;;;11.80;66.80;;;;;;10506510;28;20123;-53
2022/01/07 03:25:45;;;;;;;3.40;1.45;;;11.90;66.70;;;;;;10522934;28;20228;-53
2022/01/07 03:30:47;;;;;;;1.95;1.17;;;11.90;66.70;;;;;;10522676;28;20028;-52
2022/01/07 03:35:48;;;;;;;2.60;1.23;;;11.80;66.70;;;;;;10505046;28;20118;-53
2022/01/07 03:40:49;;;;;;;1.95;1.35;;;11.80;66.70;;;;;;10540456;28;20028;-53
2022/01/07 03:45:50;;;;;;;2.65;1.25;;;11.90;66.70;;;;;;10540263;28;20039;-52
2022/01/07 03:50:51;;;;;;;2.80;1.52;;;11.90;66.70;;;;;;10522042;28;20373;-52
2022/01/07 03:55:53;;;;;;;2.67;0.95;;;11.80;66.70;;;;;;10550569;28;20036;-52
2022/01/07 04:00:53;;;;;;;3.15;1.23;;;11.80;66.70;;;;;;10553356;28;20028;-53
2022/01/07 04:05:54;;;;;;;2.47;1.15;;;11.90;66.70;;;;;;10539529;28;20027;-53
2022/01/07 04:10:55;;;;;;;3.67;1.27;;;11.80;66.70;;;;;;10539234;28;20111;-53
2022/01/07 04:15:56;;;;;;;2.15;1.02;;;11.80;66.70;;;;;;10539432;28;20137;-52
2022/01/07 04:20:56;;;;;;;2.10;1.27;;;11.90;66.70;;;;;;10520744;28;20495;-52
2022/01/07 04:25:57;;;;;;;1.67;1.10;;;11.90;66.70;;;;;;10538605;28;20097;-54
2022/01/07 04:30:58;;;;;;;1.38;0.80;;;11.90;66.70;;;;;;10520510;28;20077;-52
2022/01/07 04:35:59;;;;;;;2.15;1.40;;;11.80;66.70;;;;;;10538698;28;20437;-53
2022/01/07 04:41:00;;;;;;;1.95;1.00;;;11.90;66.60;;;;;;10538550;28;20101;-51
2022/01/07 04:46:01;;;;;;;1.60;1.08;;;11.90;66.70;;;;;;10520348;28;20036;-53
2022/01/07 04:51:02;;;;;;;2.22;1.17;;;11.80;66.70;;;;;;10519540;28;20046;-54
2022/01/07 04:56:03;;;;;;;2.03;1.17;;;11.90;66.70;;;;;;10531928;28;20031;-54
2022/01/07 05:01:03;;;;;;;2.80;1.17;;;11.90;66.70;;;;;;10567727;28;20488;-53
2022/01/07 05:11:23;;;;;;;1.83;1.05;;;11.80;66.70;;;;;;10521710;28;20127;-54
2022/01/07 05:16:26;;;;;;;2.08;0.95;;;11.90;66.70;;;;;;10518793;28;20484;-53
2022/01/07 05:21:27;;;;;;;2.63;1.23;;;11.90;66.70;;;;;;10537270;28;20028;-53
2022/01/07 05:26:28;;;;;;;3.15;1.25;;;11.80;66.70;;;;;;10536742;28;20061;-53
2022/01/07 05:31:28;;;;;;;1.48;0.88;;;11.90;66.70;;;;;;10501827;28;20156;-53
2022/01/07 05:36:29;;;;;;;2.80;1.08;;;11.90;66.50;;;;;;10518177;28;20117;-53
2022/01/07 05:41:30;;;;;;;1.80;0.95;;;11.80;66.70;;;;;;10536080;28;20039;-52
2022/01/07 05:46:30;;;;;;;1.35;0.90;;;11.80;66.70;;;;;;10535998;28;20476;-53
2022/01/07 05:51:31;;;;;;;1.80;0.95;;;11.90;66.50;;;;;;10536433;28;20515;-53
2022/01/07 05:56:32;;;;;;;2.42;1.20;;;11.90;66.60;;;;;;10553271;28;20084;-53
2022/01/07 06:01:33;;;;;;;1.33;0.80;;;11.80;66.70;;;;;;10553316;28;20112;-54
2022/01/07 06:06:33;;;;;;;2.60;0.80;;;11.90;66.70;;;;;;10526164;28;20028;-53
2022/01/07 06:11:34;;;;;;;1.80;0.90;;;11.90;66.50;;;;;;10526081;28;20020;-53
2022/01/07 06:16:35;;;;;;;1.52;0.75;;;11.80;66.70;;;;;;10543816;28;20100;-53
2022/01/07 06:21:35;;;;;;;1.17;0.73;;;11.80;66.70;;;;;;10509090;28;20450;-52
2022/01/07 06:26:38;;;;;;;1.95;1.52;;;11.90;66.50;;;;;;10543887;28;20056;-53
2022/01/07 06:31:38;;;;;;;1.48;1.00;;;11.90;66.60;;;;;;10525240;28;20429;-53
2022/01/07 06:36:39;;;;;;;1.23;0.80;;;11.90;66.70;;;;;;10524793;28;20035;-53
2022/01/07 06:41:40;;;;;;;1.80;0.80;;;11.90;66.70;;;;;;10524642;28;20031;-53
2022/01/07 06:46:41;;;;;;;2.10;0.98;;;11.90;66.50;;;;;;10542747;28;20460;-54
2022/01/07 06:51:42;;;;;;;1.77;0.85;;;11.90;66.60;;;;;;10542706;28;20028;-53
2022/01/07 06:56:44;;;;;;;1.80;1.02;;;11.80;67.20;;;;;;10541855;28;20103;-54
2022/01/07 07:01:47;;;;;;;1.38;1.00;;;11.90;66.60;;;;;;10566897;28;20020;-54
2022/01/07 07:06:48;;;;;;;1.50;1.05;;;11.90;66.50;;;;;;10524137;28;20031;-53
2022/01/07 07:11:48;;;;;;;1.27;0.68;;;11.90;66.70;;;;;;10540367;28;20110;-53
2022/01/07 07:16:49;;;;;;;1.60;0.80;;;11.90;66.70;;;;;;10506536;28;20048;-53
2022/01/07 07:21:50;;;;;;;2.83;0.82;;;11.90;66.60;;;;;;10541215;28;20535;-52
2022/01/07 07:26:51;;;;;;;1.30;0.80;;;11.90;66.60;;;;;;10540871;28;20043;-53
2022/01/07 07:31:55;;;;;;;1.05;0.95;;;11.90;66.70;;;;;;10541320;28;20127;-54
2022/01/07 07:36:56;;;;;;;1.50;0.70;;;11.90;66.60;;;;;;10523159;28;20099;-52
2022/01/07 07:41:57;;;;;;;1.63;0.80;;;11.90;66.50;;;;;;10522464;28;20028;-54
2022/01/07 07:46:58;;;;;;;1.02;0.80;;;11.90;66.70;;;;;;10522245;28;20028;-53
2022/01/07 07:51:59;;;;;;;1.45;0.80;;;11.90;66.70;;;;;;10540145;28;20032;-53
2022/01/07 07:57:00;;;;;;;3.22;1.02;;;11.90;66.40;;;;;;10541845;28;20538;-53
2022/01/07 08:02:02;;;;;;;1.30;0.90;;;11.90;66.50;;;;;;10561806;28;20530;-52
2022/01/07 08:07:03;;;;;;;1.75;1.08;;;11.90;66.70;;;;;;10520511;28;20028;-53
2022/01/07 08:12:17;;;;;;;2.05;0.80;;;11.90;66.60;;;;;;10537697;28;20039;-51
2022/01/07 08:17:18;;;;;;;1.30;0.77;;;11.90;67.10;;;;;;10519086;28;20035;-55
2022/01/07 08:22:19;;;;;;;1.63;0.80;;;11.90;66.60;;;;;;10519938;28;20103;-55
2022/01/07 08:27:21;;;;;;;1.73;0.80;;;11.90;66.70;;;;;;10520731;28;20035;-55
2022/01/07 08:37:41;;;;;;;1.63;0.87;;;11.90;66.50;;;;;;10523386;28;20036;-53
2022/01/07 08:42:41;;;;;;;1.92;0.88;;;11.90;66.70;;;;;;10520285;28;20472;-52
2022/01/07 08:47:42;;;;;;;1.65;0.77;;;11.90;66.70;;;;;;10537862;28;20453;-54
2022/01/07 08:52:43;;;;;;;1.40;0.60;;;11.90;66.60;;;;;;10538335;28;20050;-57
2022/01/07 08:57:44;;;;;;;1.52;0.90;;;11.90;66.70;;;;;;10563566;28;20028;-53
2022/01/07 09:02:44;;;;;;;1.42;0.88;;;11.90;66.70;;;;;;10553756;28;20036;-53
2022/01/07 09:07:45;;;;;;;1.10;0.65;;;11.90;66.50;;;;;;10537232;28;20055;-56
2022/01/07 09:12:46;;;;;;;1.20;0.82;;;11.90;66.40;;;;;;10518842;28;20059;-55
2022/01/07 09:17:47;;;;;;;0.60;0.57;;;11.90;66.60;;;;;;10519165;28;20115;-55
2022/01/07 09:22:49;;;;;;;0.82;0.68;;;11.90;66.70;;;;;;10518813;28;20555;-55
2022/01/07 09:27:49;;;;;;;1.60;0.90;;;11.90;66.50;;;;;;10518486;28;20046;-55
2022/01/07 09:32:50;;;;;;;1.30;0.93;;;11.90;66.50;;;;;;10536187;28;20034;-53
2022/01/07 09:37:51;;;;;;;1.65;1.00;;;11.90;66.70;;;;;;10518235;28;20034;-53
2022/01/07 09:43:05;;;;;;;1.27;0.93;;;11.90;66.70;;;;;;10536032;28;20771;-53
2022/01/07 09:48:08;;;;;;;2.10;1.13;;;11.90;66.70;;;;;;10518439;28;20573;-56
2022/01/07 09:53:13;;;;;;;1.13;0.90;;;11.80;66.70;;;;;;10518049;28;20103;-54
2022/01/07 09:58:14;;;;;;;0.90;0.80;;;11.80;66.90;;;;;;10548529;28;20361;-54
2022/01/07 10:03:17;;;;;;;1.77;1.00;;;11.80;67.00;;;;;;10529621;28;20043;-56
2022/01/07 10:08:28;;;;;;;1.17;0.70;;;11.80;67.10;;;;;;10517877;28;20025;-56
2022/01/07 10:13:29;;;;;;;2.45;1.17;;;11.80;67.00;;;;;;10535413;28;20039;-55
2022/01/07 10:18:39;;;;;;;1.35;1.00;;;11.80;67.10;;;;;;10500924;28;20369;-54
2022/01/07 10:23:40;;;;;;;1.60;1.00;;;11.80;67.10;;;;;;10517445;28;20052;-55
2022/01/07 10:28:42;;;;;;;0.98;0.60;;;11.70;67.20;;;;;;10517126;28;20388;-55
2022/01/07 10:33:44;;;;;;;1.40;0.50;;;11.70;67.30;;;;;;10517172;28;20035;-55
2022/01/07 10:39:04;;;;;;;1.25;0.98;;;11.70;67.50;;;;;;10517018;28;20030;-55
2022/01/07 10:44:08;;;;;;;0.93;0.70;;;11.70;67.30;;;;;;10521298;28;20385;-55
2022/01/07 10:49:09;;;;;;;2.03;0.95;;;11.70;67.20;;;;;;10542630;28;20031;-54
2022/01/07 10:54:16;;;;;;;1.38;0.90;;;11.70;67.20;;;;;;10524385;28;20028;-54
2022/01/07 10:59:19;;;;;;;1.30;0.90;;;11.70;67.10;;;;;;10564552;28;20023;-54
2022/01/07 11:04:31;;;;;;;1.23;0.82;;;11.70;67.20;;;;;;10527063;28;20020;-54
2022/01/07 11:09:31;;;;;;;1.73;1.00;;;11.80;67.20;;;;;;10507949;28;20040;-54
2022/01/07 11:14:35;;;;;;;1.90;1.17;;;11.80;67.20;;;;;;10541721;28;20446;-54
2022/01/07 11:19:39;;;;;;;1.05;0.75;;;11.80;67.20;;;;;;10541456;28;20036;-52
2022/01/07 11:24:56;;;;;;;1.15;0.70;;;11.70;67.20;;;;;;10523195;28;20123;-53
2022/01/07 11:30:03;;;;;;;1.67;1.00;;;11.70;67.40;;;;;;10541052;28;20054;-53
2022/01/07 11:35:21;;;;;;;1.58;0.98;;;11.70;67.50;;;;;;10541209;28;20043;-52
2022/01/07 11:40:33;;;;;;;1.63;0.90;;;11.80;67.40;;;;;;10540558;28;20039;-51
2022/01/07 11:45:38;;;;;;;1.65;0.93;;;11.70;67.30;;;;;;10540538;28;20024;-53
2022/01/07 11:51:00;;;;;;;2.55;1.00;;;11.70;67.30;;;;;;10522034;28;20488;-55
2022/01/07 11:56:03;;;;;;;1.55;0.98;;;11.70;67.50;;;;;;10551495;28;20027;-55
2022/01/07 12:01:04;;;;;;;1.40;0.60;;;11.70;67.50;;;;;;10552635;28;20107;-55
2022/01/07 12:06:24;;;;;;;1.55;0.90;;;11.80;67.30;;;;;;10521398;28;20032;-52
2022/01/07 12:11:30;;;;;;;2.53;0.90;;;11.80;67.10;;;;;;10539442;28;20093;-54
2022/01/07 12:16:34;;;;;;;2.15;1.02;;;11.80;67.10;;;;;;10521979;28;20106;-54
2022/01/07 12:21:39;;;;;;;1.77;1.10;;;11.80;67.20;;;;;;10520844;28;20044;-55
2022/01/07 12:26:41;;;;;;;1.20;0.90;;;11.80;67.30;;;;;;10520911;28;20516;-55
2022/01/07 12:31:52;;;;;;;1.85;0.80;;;11.80;67.20;;;;;;10539084;28;20476;-53
2022/01/07 12:37:03;;;;;;;1.80;0.90;;;11.90;67.00;;;;;;10520316;28;20097;-55
2022/01/07 12:42:06;;;;;;;1.30;0.95;;;11.90;67.00;;;;;;10520276;28;20028;-55
2022/01/07 12:47:08;;;;;;;1.35;0.70;;;11.90;67.10;;;;;;10519775;28;20496;-54
2022/01/07 12:52:30;;;;;;;1.52;0.90;;;11.90;67.20;;;;;;10520141;28;20027;-55
2022/01/07 12:57:42;;;;;;;3.17;1.20;;;11.80;67.30;;;;;;10543865;28;20111;-55
2022/01/07 13:02:50;;;;;;;1.52;0.70;;;11.80;67.40;;;;;;10553776;28;20027;-55
2022/01/07 13:07:58;;;;;;;2.13;0.95;;;11.80;67.60;;;;;;10537230;28;20117;-56
2022/01/07 13:13:24;;;;;;;1.70;1.02;;;11.70;67.60;;;;;;10519044;28;20051;-56
2022/01/07 13:18:35;;;;;;;1.40;0.93;;;11.70;67.60;;;;;;10524789;28;20084;-54
2022/01/07 13:23:51;;;;;;;1.23;0.88;;;11.70;67.70;;;;;;10536618;28;20040;-55
2022/01/07 13:28:55;;;;;;;2.22;1.08;;;11.70;67.80;;;;;;10520006;28;20108;-53
2022/01/07 13:33:55;;;;;;;2.35;1.02;;;11.70;67.70;;;;;;10536808;28;20062;-52
2022/01/07 13:38:58;;;;;;;1.83;0.93;;;11.70;67.80;;;;;;10518552;28;20417;-52
2022/01/07 13:44:06;;;;;;;1.33;0.70;;;11.70;67.80;;;;;;10502056;28;20035;-53
2022/01/07 13:49:09;;;;;;;1.77;1.05;;;11.60;67.90;;;;;;10518316;28;20028;-53
2022/01/07 13:54:12;;;;;;;0.77;0.60;;;11.70;67.70;;;;;;10518014;28;20395;-53
2022/01/07 13:59:15;;;;;;;1.38;0.77;;;11.70;67.60;;;;;;10574345;28;20454;-53
2022/01/07 14:04:15;;;;;;;1.00;0.90;;;11.70;67.70;;;;;;10521235;28;20039;-52
2022/01/07 14:09:18;;;;;;;1.80;1.00;;;11.70;67.80;;;;;;10535478;28;20490;-52
2022/01/07 14:14:19;;;;;;;1.67;0.90;;;11.70;67.50;;;;;;10535477;28;20023;-53
2022/01/07 14:19:20;;;;;;;1.45;0.70;;;11.70;68.10;;;;;;10539673;28;20103;-55
2022/01/07 14:24:20;;;;;;;1.58;0.70;;;11.70;67.50;;;;;;10508736;28;20519;-55
2022/01/07 14:29:21;;;;;;;1.52;0.82;;;11.70;67.50;;;;;;10525396;28;20081;-54
2022/01/07 14:34:22;;;;;;;1.10;0.75;;;11.80;67.40;;;;;;10525247;28;20460;-55
2022/01/07 14:39:23;;;;;;;1.20;0.65;;;11.80;67.20;;;;;;10524794;28;20043;-55
2022/01/07 14:44:23;;;;;;;1.35;0.88;;;11.80;67.20;;;;;;10542942;28;20420;-54
2022/01/07 14:49:24;;;;;;;1.55;1.00;;;11.80;67.20;;;;;;10507804;28;20127;-53
2022/01/07 14:54:25;;;;;;;1.20;1.02;;;11.90;67.00;;;;;;10524359;28;20039;-57
2022/01/07 14:59:25;;;;;;;1.13;0.77;;;11.90;67.00;;;;;;10564494;28;20422;-55
2022/01/07 15:04:26;;;;;;;0.93;0.70;;;11.90;66.80;;;;;;10544241;28;20028;-54
2022/01/07 15:09:27;;;;;;;0.98;0.82;;;11.90;66.70;;;;;;10523796;28;20028;-55
2022/01/07 15:14:28;;;;;;;1.35;0.90;;;11.90;66.70;;;;;;10542035;28;20476;-55
2022/01/07 15:19:32;;;;;;;1.23;0.73;;;11.90;66.90;;;;;;10541480;28;20065;-55
2022/01/07 15:24:33;;;;;;;0.93;0.65;;;11.80;67.10;;;;;;10523522;28;20035;-55
2022/01/07 15:29:35;;;;;;;1.70;0.85;;;11.90;67.00;;;;;;10505188;28;20035;-53
2022/01/07 15:34:36;;;;;;;0.82;0.60;;;11.90;66.90;;;;;;10522919;28;20032;-53
2022/01/07 15:39:36;;;;;;;0.90;0.82;;;11.90;67.00;;;;;;10540565;28;20028;-53
2022/01/07 15:44:37;;;;;;;1.48;0.68;;;11.80;67.10;;;;;;10522670;28;20024;-51
2022/01/07 15:49:38;;;;;;;1.20;0.70;;;11.80;67.10;;;;;;10522274;28;20024;-52
2022/01/07 15:54:39;;;;;;;1.55;0.88;;;11.80;66.90;;;;;;10540446;28;20377;-52
2022/01/07 15:59:39;;;;;;;1.77;0.70;;;11.90;67.00;;;;;;10563767;28;20031;-53
2022/01/07 16:04:40;;;;;;;1.15;0.85;;;11.80;67.10;;;;;;10521769;28;20499;-53
2022/01/07 16:09:43;;;;;;;1.85;0.75;;;11.80;67.10;;;;;;10521413;28;20451;-53
2022/01/07 16:14:44;;;;;;;1.13;0.60;;;11.80;67.10;;;;;;10504958;28;20061;-54
2022/01/07 16:19:44;;;;;;;0.68;0.50;;;11.90;67.00;;;;;;10504235;28;20061;-53
2022/01/07 16:24:45;;;;;;;1.15;0.60;;;11.90;66.70;;;;;;10538845;28;20040;-52
2022/01/07 16:29:47;;;;;;;1.10;0.60;;;11.90;66.70;;;;;;10520372;28;20034;-53
2022/01/07 16:34:48;;;;;;;0.45;0.40;;;11.90;66.70;;;;;;10537635;28;20169;-53
2022/01/07 16:39:49;;;;;;;0.85;0.50;;;11.90;66.80;;;;;;10537946;28;20028;-52
2022/01/07 16:44:49;;;;;;;0.80;0.65;;;11.90;66.90;;;;;;10538160;28;20028;-53
2022/01/07 16:49:50;;;;;;;0.95;0.60;;;11.90;66.70;;;;;;10537981;28;20409;-52
2022/01/07 16:54:52;;;;;;;0.98;0.60;;;11.90;66.70;;;;;;10521654;28;20031;-53
2022/01/07 16:59:52;;;;;;;1.38;0.68;;;11.90;66.80;;;;;;10560101;28;20035;-53
2022/01/07 17:04:53;;;;;;;1.85;0.70;;;11.90;66.90;;;;;;10537437;28;20124;-55
2022/01/07 17:09:54;;;;;;;1.75;0.82;;;11.90;66.80;;;;;;10537228;28;20387;-55
2022/01/07 17:14:54;;;;;;;0.98;0.57;;;11.90;66.70;;;;;;10537095;28;20079;-55
2022/01/07 17:19:55;;;;;;;0.60;0.60;;;11.90;66.90;;;;;;10501824;28;20551;-54
2022/01/07 17:24:56;;;;;;;1.50;1.13;;;11.90;66.70;;;;;;10518678;28;20181;-53
2022/01/07 17:30:00;;;;;;;1.38;0.60;;;11.90;66.70;;;;;;10501888;28;20035;-53
2022/01/07 17:35:00;;;;;;;1.38;0.85;;;11.90;66.70;;;;;;10518445;28;20032;-51
2022/01/07 17:40:04;;;;;;;1.45;0.70;;;11.90;66.80;;;;;;10536209;28;20107;-52
2022/01/07 17:45:05;;;;;;;1.42;0.55;;;11.90;66.70;;;;;;10518579;28;20058;-53
2022/01/07 17:50:08;;;;;;;0.90;0.65;;;11.90;66.70;;;;;;10518577;28;20119;-55
2022/01/07 17:55:09;;;;;;;0.70;0.40;;;11.90;66.80;;;;;;10539651;28;20496;-55
2022/01/07 18:00:12;;;;;;;1.48;0.63;;;11.90;66.70;;;;;;10555674;28;20039;-53
2022/01/07 18:05:13;;;;;;;1.05;0.75;;;11.90;66.70;;;;;;10535827;28;20055;-55
2022/01/07 18:10:15;;;;;;;1.15;0.60;;;11.90;66.70;;;;;;10517632;28;20399;-55
2022/01/07 18:15:16;;;;;;;0.80;0.52;;;11.90;66.80;;;;;;10517627;28;20102;-55
2022/01/07 18:20:17;;;;;;;0.95;0.57;;;11.90;66.70;;;;;;10517391;28;20440;-54
2022/01/07 18:25:18;;;;;;;0.75;0.60;;;11.90;66.70;;;;;;10535248;28;20071;-54
2022/01/07 18:30:18;;;;;;;0.77;0.60;;;11.90;66.80;;;;;;10500387;28;20024;-55
2022/01/07 18:35:19;;;;;;;0.70;0.60;;;11.90;66.70;;;;;;10535758;28;20028;-55
2022/01/07 18:40:20;;;;;;;1.35;0.60;;;11.90;66.70;;;;;;10516895;28;20425;-55
2022/01/07 18:45:21;;;;;;;0.95;0.60;;;11.90;66.70;;;;;;10517320;28;20024;-54
2022/01/07 18:50:22;;;;;;;0.93;0.45;;;11.90;66.70;;;;;;10535012;28;20028;-55
2022/01/07 18:55:24;;;;;;;1.15;0.60;;;11.90;66.70;;;;;;10523094;28;20043;-55
2022/01/07 19:00:25;;;;;;;1.45;0.70;;;11.90;66.70;;;;;;10570818;28;20028;-56
2022/01/07 19:05:26;;;;;;;0.80;0.60;;;11.90;66.70;;;;;;10503637;28;20028;-55
2022/01/07 19:10:26;;;;;;;0.80;0.50;;;11.90;66.70;;;;;;10542084;28;20083;-55
2022/01/07 19:15:27;;;;;;;0.50;0.45;;;11.90;66.70;;;;;;10523755;28;20111;-54
2022/01/07 19:20:28;;;;;;;0.60;0.50;;;11.90;66.70;;;;;;10523578;28;20036;-55
2022/01/07 19:25:29;;;;;;;0.80;0.40;;;11.90;66.70;;;;;;10541368;28;20095;-55
2022/01/07 19:30:30;;;;;;;0.50;0.50;;;11.90;66.70;;;;;;10523071;28;20063;-54
2022/01/07 19:35:31;;;;;;;1.10;0.80;;;11.90;66.70;;;;;;10541298;28;20028;-54
2022/01/07 19:40:33;;;;;;;1.58;0.80;;;11.90;66.70;;;;;;10540885;28;20403;-55
2022/01/07 19:45:35;;;;;;;0.95;0.65;;;11.80;66.80;;;;;;10523135;28;20469;-54
2022/01/07 19:50:37;;;;;;;1.00;0.70;;;11.90;66.70;;;;;;10505476;28;20034;-55
2022/01/07 19:55:37;;;;;;;0.77;0.52;;;11.90;66.70;;;;;;10530617;28;20024;-53
2022/01/07 20:00:38;;;;;;;1.38;0.73;;;11.90;66.70;;;;;;10555979;28;20063;-55
2022/01/07 20:05:42;;;;;;;1.02;0.60;;;11.90;66.70;;;;;;10521854;28;20024;-55
2022/01/07 20:10:43;;;;;;;0.80;0.50;;;11.90;66.70;;;;;;10521952;28;20107;-55
2022/01/07 20:15:44;;;;;;;1.05;0.60;;;11.90;66.70;;;;;;10520793;28;20115;-54
2022/01/07 20:20:44;;;;;;;1.00;0.60;;;11.90;66.70;;;;;;10521115;28;20107;-55
2022/01/07 20:25:47;;;;;;;0.88;0.50;;;11.90;66.70;;;;;;10538908;28;20059;-55
2022/01/07 20:30:48;;;;;;;1.17;0.60;;;11.90;66.70;;;;;;10539327;28;20031;-55
2022/01/07 20:35:48;;;;;;;1.00;0.85;;;11.90;66.70;;;;;;10538647;28;20028;-55
2022/01/07 20:40:51;;;;;;;0.90;0.60;;;11.80;66.70;;;;;;10520342;28;20052;-55
2022/01/07 20:45:51;;;;;;;1.58;0.50;;;11.90;66.60;;;;;;10520116;28;20480;-55
2022/01/07 20:50:52;;;;;;;1.45;0.60;;;11.90;66.50;;;;;;10538141;28;20509;-55
2022/01/07 20:55:52;;;;;;;0.88;0.63;;;12.00;66.30;;;;;;10513463;28;20041;-54
2022/01/07 21:00:53;;;;;;;0.90;0.50;;;12.00;66.30;;;;;;10570150;28;20035;-54
2022/01/07 21:05:54;;;;;;;1.48;0.68;;;11.90;66.40;;;;;;10519664;28;20016;-55
2022/01/07 21:10:55;;;;;;;1.45;0.73;;;11.90;66.60;;;;;;10537164;28;20031;-55
2022/01/07 21:15:56;;;;;;;0.45;0.43;;;11.90;66.50;;;;;;10537184;28;20035;-55
2022/01/07 21:20:57;;;;;;;1.20;0.68;;;11.90;66.40;;;;;;10536978;28;20119;-55
2022/01/07 21:25:58;;;;;;;1.00;0.60;;;11.90;66.60;;;;;;10465305;28;20051;-55
2022/01/07 21:30:59;;;;;;;1.23;0.60;;;11.90;66.70;;;;;;10451704;28;20095;-53
2022/01/07 21:35:59;;;;;;;1.20;0.77;;;11.90;66.50;;;;;;10435473;28;20028;-55
2022/01/07 21:41:00;;;;;;;1.15;0.60;;;11.90;66.60;;;;;;10453041;28;20103;-55
2022/01/07 21:46:01;;;;;;;0.68;0.57;;;11.90;66.70;;;;;;10451618;28;20028;-54
2022/01/07 21:51:02;;;;;;;1.15;0.65;;;11.90;66.70;;;;;;10451590;28;20037;-54
2022/01/07 21:56:04;;;;;;;1.83;0.60;;;11.90;66.50;;;;;;10464462;28;20029;-54
2022/01/07 22:01:05;;;;;;;1.45;0.40;;;11.90;66.70;;;;;;10464793;28;20060;-53
2022/01/07 22:06:05;;;;;;;0.50;0.50;;;11.90;66.70;;;;;;10434663;28;20112;-55
2022/01/07 22:11:06;;;;;;;1.67;0.60;;;11.80;66.60;;;;;;10452420;28;20029;-54
2022/01/07 22:16:07;;;;;;;0.75;0.60;;;11.90;67.10;;;;;;10451166;28;20103;-55
2022/01/07 22:21:07;;;;;;;0.80;0.50;;;11.90;66.70;;;;;;10452154;28;20389;-55
2022/01/07 22:26:08;;;;;;;0.65;0.40;;;11.80;66.70;;;;;;10451427;28;20118;-55
2022/01/07 22:31:09;;;;;;;0.80;0.55;;;11.90;66.50;;;;;;10450747;28;20041;-52
2022/01/07 22:36:11;;;;;;;0.73;0.50;;;11.90;66.60;;;;;;10434166;28;20044;-53
2022/01/07 22:41:11;;;;;;;0.82;0.60;;;11.90;66.60;;;;;;10455768;28;20447;-53
2022/01/07 22:46:12;;;;;;;0.77;0.50;;;11.80;66.70;;;;;;10458461;28;20025;-53
2022/01/07 22:51:14;;;;;;;1.23;0.70;;;11.90;66.50;;;;;;10459551;28;20453;-53
2022/01/07 22:56:15;;;;;;;1.00;0.70;;;11.90;66.40;;;;;;10473564;28;20021;-53
2022/01/07 23:01:16;;;;;;;0.93;0.70;;;11.90;66.50;;;;;;10487557;28;20031;-53
2022/01/07 23:06:17;;;;;;;0.95;0.65;;;11.90;66.60;;;;;;10459061;28;20116;-54
2022/01/07 23:11:17;;;;;;;1.75;0.52;;;11.90;66.40;;;;;;10440785;28;20033;-52
2022/01/07 23:16:29;;;;;;;1.40;0.68;;;11.90;66.40;;;;;;10440697;28;20033;-53
2022/01/07 23:21:30;;;;;;;1.48;0.77;;;11.90;66.50;;;;;;10458790;28;20025;-53
2022/01/07 23:26:31;;;;;;;0.77;0.73;;;11.90;66.40;;;;;;10523920;28;20408;-52
2022/01/07 23:31:33;;;;;;;1.27;0.75;;;11.90;66.30;;;;;;10523291;28;20032;-52
2022/01/07 23:36:35;;;;;;;1.08;0.82;;;11.90;66.50;;;;;;10541047;28;20028;-53
2022/01/07 23:41:38;;;;;;;1.27;0.73;;;11.90;66.50;;;;;;10522829;28;20028;-54
2022/01/07 23:46:39;;;;;;;1.38;0.73;;;11.90;66.40;;;;;;10523022;28;20028;-52
2022/01/07 23:51:39;;;;;;;0.95;0.55;;;11.90;66.50;;;;;;10521402;28;20110;-53
2022/01/07 23:56:40;;;;;;;1.60;0.60;;;11.90;66.50;;;;;;10539386;28;20103;-53
